createdAt,value
2022-11-16T00:00:44.376Z,8.80
2022-11-16T00:05:47.324Z,8.70
2022-11-16T00:10:50.125Z,8.80
2022-11-16T00:15:57.414Z,8.70
2022-11-16T00:21:00.573Z,8.70
2022-11-16T00:26:08.887Z,8.70
2022-11-16T00:31:11.799Z,8.70
2022-11-16T00:36:15.004Z,8.70
2022-11-16T00:41:18.019Z,8.70
2022-11-16T00:46:21.424Z,8.70
2022-11-16T00:51:24.077Z,8.70
2022-11-16T00:56:27.685Z,8.70
2022-11-16T01:01:30.869Z,8.70
2022-11-16T01:06:33.849Z,8.70
2022-11-16T01:11:55.553Z,8.70
2022-11-16T01:16:58.492Z,8.80
2022-11-16T01:22:01.447Z,8.70
2022-11-16T01:27:04.754Z,8.80
2022-11-16T01:32:07.527Z,8.70
2022-11-16T01:37:11.133Z,8.70
2022-11-16T01:42:20.015Z,8.70
2022-11-16T01:47:22.956Z,8.70
2022-11-16T01:52:31.482Z,8.70
2022-11-16T01:57:41.949Z,8.70
2022-11-16T02:02:45.232Z,8.70
2022-11-16T02:08:38.693Z,8.60
2022-11-16T02:14:37.229Z,8.70
2022-11-16T02:20:01.008Z,8.70
2022-11-16T02:25:26.637Z,8.70
2022-11-16T02:30:29.771Z,8.60
2022-11-16T02:35:49.936Z,8.60
2022-11-16T02:40:59.025Z,8.60
2022-11-16T02:46:08.601Z,8.60
2022-11-16T02:51:12.384Z,8.70
2022-11-16T02:56:16.368Z,8.70
2022-11-16T03:01:35.956Z,8.70
2022-11-16T03:06:41.659Z,8.70
2022-11-16T03:11:59.336Z,8.70
2022-11-16T03:17:06.894Z,8.70
2022-11-16T03:22:35.498Z,8.70
2022-11-16T03:27:54.577Z,8.70
2022-11-16T03:33:06.245Z,8.70
2022-11-16T03:38:12.187Z,8.70
2022-11-16T03:43:17.705Z,8.70
2022-11-16T03:48:20.697Z,8.70
2022-11-16T03:53:23.543Z,8.70
2022-11-16T03:58:26.505Z,8.80
2022-11-16T04:03:29.572Z,8.80
2022-11-16T04:08:51.686Z,8.80
2022-11-16T04:14:12.885Z,8.80
2022-11-16T04:19:33.921Z,8.80
2022-11-16T04:24:40.295Z,8.80
2022-11-16T04:29:43.591Z,8.90
2022-11-16T04:35:05.184Z,8.80
2022-11-16T04:40:09.585Z,8.80
2022-11-16T04:45:30.815Z,8.80
2022-11-16T04:50:35.191Z,8.80
2022-11-16T04:55:40.365Z,8.80
2022-11-16T05:00:43.297Z,8.80
2022-11-16T05:05:46.363Z,8.80
2022-11-16T05:10:51.616Z,8.90
2022-11-16T05:15:54.475Z,8.90
2022-11-16T05:21:03.196Z,8.90
2022-11-16T05:26:06.224Z,8.90
2022-11-16T05:31:08.967Z,8.90
2022-11-16T05:36:11.969Z,8.80
2022-11-16T05:41:15.389Z,8.90
2022-11-16T05:46:18.173Z,8.90
2022-11-16T05:51:21.574Z,8.80
2022-11-16T05:56:24.519Z,8.80
2022-11-16T06:01:27.618Z,8.80
2022-11-16T06:06:30.831Z,8.80
2022-11-16T06:11:36.280Z,8.80
2022-11-16T06:16:39.124Z,8.80
2022-11-16T06:21:43.280Z,8.80
2022-11-16T06:26:47.183Z,8.80
2022-11-16T06:31:50.582Z,8.80
2022-11-16T06:36:53.551Z,8.80
2022-11-16T06:41:56.449Z,8.90
2022-11-16T06:46:59.276Z,8.90
2022-11-16T06:52:02.127Z,8.90
2022-11-16T06:57:05.090Z,8.90
2022-11-16T07:02:10.569Z,8.90
2022-11-16T07:07:15.256Z,9.00
2022-11-16T07:12:18.120Z,9.00
2022-11-16T07:17:21.047Z,9.00
2022-11-16T07:22:23.872Z,9.00
2022-11-16T07:27:26.807Z,9.00
2022-11-16T07:32:31.086Z,9.00
2022-11-16T07:37:34.176Z,9.10
2022-11-16T07:42:37.673Z,9.10
2022-11-16T07:47:41.327Z,9.10
2022-11-16T07:52:46.579Z,9.10
2022-11-16T07:57:53.300Z,9.10
2022-11-16T08:02:57.149Z,9.10
2022-11-16T08:08:00.387Z,9.10
2022-11-16T08:13:04.003Z,9.20
2022-11-16T08:18:06.983Z,9.20
2022-11-16T08:23:10.269Z,9.20
2022-11-16T08:28:14.488Z,9.20
2022-11-16T08:33:18.014Z,9.30
2022-11-16T08:38:21.348Z,9.30
2022-11-16T08:43:24.569Z,9.40
2022-11-16T08:48:27.700Z,9.40
2022-11-16T08:53:30.610Z,9.40
2022-11-16T08:58:33.692Z,9.50
2022-11-16T09:03:38.979Z,9.50
2022-11-16T09:08:44.330Z,9.50
2022-11-16T09:13:50.439Z,9.50
2022-11-16T09:18:54.068Z,9.60
2022-11-16T09:23:57.934Z,9.60
2022-11-16T09:29:03.145Z,9.60
2022-11-16T09:34:05.822Z,9.60
2022-11-16T09:45:00.475Z,9.60
2022-11-16T09:50:07.320Z,9.60
2022-11-16T09:55:36.869Z,9.60
2022-11-16T10:00:47.434Z,9.70
2022-11-16T10:06:03.394Z,9.70
2022-11-16T10:11:16.481Z,9.70
2022-11-16T10:16:35.538Z,9.80
2022-11-16T10:21:52.276Z,9.80
2022-11-16T10:27:07.169Z,9.90
2022-11-16T10:32:32.887Z,9.90
2022-11-16T10:37:41.102Z,9.90
2022-11-16T10:43:05.154Z,9.90
2022-11-16T10:48:42.762Z,9.90
2022-11-16T10:53:45.725Z,9.80
2022-11-16T10:59:03.451Z,9.90
2022-11-16T11:04:17.631Z,9.80
2022-11-16T11:09:36.916Z,9.80
2022-11-16T11:14:39.832Z,9.90
2022-11-16T11:19:42.846Z,9.90
2022-11-16T11:24:49.033Z,10.00
2022-11-16T11:29:55.790Z,10.00
2022-11-16T11:35:00.450Z,10.00
2022-11-16T11:40:31.537Z,10.00
2022-11-16T11:46:03.994Z,10.00
2022-11-16T11:51:38.346Z,9.90
2022-11-16T11:56:41.302Z,9.90
2022-11-16T12:02:25.793Z,9.90
2022-11-16T12:07:40.553Z,9.90
2022-11-16T12:13:25.910Z,9.90
2022-11-16T12:19:12.908Z,9.90
2022-11-16T12:24:52.623Z,9.90
2022-11-16T12:30:21.232Z,9.80
2022-11-16T12:35:42.721Z,9.80
2022-11-16T12:41:08.710Z,9.80
2022-11-16T12:47:05.286Z,9.90
2022-11-16T12:52:26.049Z,9.90
2022-11-16T12:57:59.690Z,9.90
2022-11-16T13:03:33.539Z,9.90
2022-11-16T13:09:11.187Z,9.90
2022-11-16T13:14:21.897Z,9.90
2022-11-16T13:19:25.242Z,9.90
2022-11-16T13:25:03.841Z,9.90
2022-11-16T13:30:27.987Z,9.90
2022-11-16T13:35:31.150Z,9.90
2022-11-16T13:40:34.312Z,9.90
2022-11-16T13:46:00.009Z,9.90
2022-11-16T13:51:23.255Z,9.90
2022-11-16T13:56:29.405Z,9.90
2022-11-16T14:02:04.194Z,9.90
2022-11-16T14:07:43.096Z,9.90
2022-11-16T14:12:56.282Z,9.90
2022-11-16T14:18:09.949Z,9.80
2022-11-16T14:23:40.326Z,9.80
2022-11-16T14:28:46.345Z,9.80
2022-11-16T14:33:57.013Z,9.80
2022-11-16T14:39:27.623Z,9.80
2022-11-16T14:44:38.036Z,9.80
2022-11-16T14:49:46.709Z,9.80
2022-11-16T14:54:59.343Z,9.90
2022-11-16T15:00:18.027Z,9.80
2022-11-16T15:05:27.031Z,9.80
2022-11-16T15:10:30.234Z,9.80
2022-11-16T15:15:33.222Z,9.80
2022-11-16T15:20:46.708Z,9.70
2022-11-16T15:25:57.078Z,9.80
2022-11-16T15:31:05.938Z,9.70
2022-11-16T15:36:33.081Z,9.80
2022-11-16T15:41:38.118Z,9.80
2022-11-16T15:46:42.899Z,9.80
2022-11-16T15:51:45.809Z,9.70
2022-11-16T15:56:50.059Z,9.70
2022-11-16T16:01:53.621Z,9.70
2022-11-16T16:06:59.761Z,9.70
2022-11-16T16:12:22.650Z,9.70
2022-11-16T16:17:30.789Z,9.70
2022-11-16T16:22:37.202Z,9.70
2022-11-16T16:27:41.266Z,9.70
2022-11-16T16:32:52.189Z,9.70
2022-11-16T16:38:01.138Z,9.70
2022-11-16T16:43:04.152Z,9.70
2022-11-16T16:48:09.220Z,9.70
2022-11-16T16:53:14.368Z,9.80
2022-11-16T16:58:17.406Z,9.80
2022-11-16T17:03:24.288Z,9.70
2022-11-16T17:08:27.270Z,9.70
2022-11-16T17:13:30.420Z,9.80
2022-11-16T17:18:33.402Z,9.80
2022-11-16T17:23:37.573Z,9.70
2022-11-16T17:28:40.744Z,9.80
2022-11-16T17:33:43.930Z,9.70
2022-11-16T17:38:46.994Z,9.70
2022-11-16T17:43:54.215Z,9.70
2022-11-16T17:48:57.648Z,9.70
2022-11-16T17:54:01.099Z,9.70
2022-11-16T17:59:04.465Z,9.70
2022-11-16T18:04:07.425Z,9.70
2022-11-16T18:09:10.325Z,9.70
2022-11-16T18:14:13.462Z,9.70
2022-11-16T18:19:19.104Z,9.70
2022-11-16T18:24:22.048Z,9.70
2022-11-16T18:29:25.062Z,9.70
2022-11-16T18:34:27.931Z,9.70
2022-11-16T18:39:31.204Z,9.70
2022-11-16T18:44:34.081Z,9.70
2022-11-16T18:49:37.629Z,9.70
2022-11-16T18:54:40.587Z,9.70
2022-11-16T18:59:43.562Z,9.70
2022-11-16T19:04:46.645Z,9.70
2022-11-16T19:09:49.554Z,9.70
2022-11-16T19:14:52.505Z,9.70
2022-11-16T19:19:55.258Z,9.70
2022-11-16T19:25:03.044Z,9.80
2022-11-16T19:30:09.125Z,9.70
2022-11-16T19:35:12.500Z,9.80
2022-11-16T19:40:18.688Z,9.70
2022-11-16T19:45:23.870Z,9.70
2022-11-16T19:50:27.263Z,9.60
2022-11-16T19:55:30.195Z,9.60
2022-11-16T20:00:33.052Z,9.60
2022-11-16T20:05:36.013Z,9.60
2022-11-16T20:10:38.891Z,9.60
2022-11-16T20:15:41.759Z,9.60
2022-11-16T20:20:44.762Z,9.60
2022-11-16T20:25:47.687Z,9.60
2022-11-16T20:30:51.768Z,9.60
2022-11-16T20:36:20.876Z,9.60
2022-11-16T20:41:27.144Z,9.60
2022-11-16T20:46:32.789Z,9.60
2022-11-16T20:51:35.647Z,9.60
2022-11-16T20:56:38.578Z,9.50
2022-11-16T21:01:44.860Z,9.50
2022-11-16T21:06:47.836Z,9.50
2022-11-16T21:12:08.843Z,9.50
2022-11-16T21:17:11.815Z,9.50
2022-11-16T21:22:14.619Z,9.50
2022-11-16T21:27:17.481Z,9.50
2022-11-16T21:32:20.363Z,9.50
2022-11-16T21:37:23.366Z,9.50
2022-11-16T21:42:26.263Z,9.50
2022-11-16T21:47:29.649Z,9.50
2022-11-16T21:52:33.053Z,9.50
2022-11-16T21:57:36.027Z,9.40
2022-11-16T22:02:38.993Z,9.50
2022-11-16T22:07:55.314Z,9.50
2022-11-16T22:13:01.819Z,9.50
2022-11-16T22:18:05.012Z,9.50
2022-11-16T22:23:07.949Z,9.50
2022-11-16T22:28:20.688Z,9.50
2022-11-16T22:33:23.989Z,9.50
2022-11-16T22:38:27.666Z,9.60
2022-11-16T22:43:31.874Z,9.50
2022-11-16T22:48:39.060Z,9.60
2022-11-16T22:53:41.978Z,9.50
2022-11-16T22:58:44.830Z,9.50
2022-11-16T23:03:48.730Z,9.50
2022-11-16T23:08:52.316Z,9.50
2022-11-16T23:14:13.999Z,9.50
2022-11-16T23:19:38.264Z,9.50
2022-11-16T23:24:59.985Z,9.50
2022-11-16T23:30:11.913Z,9.50
2022-11-16T23:35:15.920Z,9.40
2022-11-16T23:40:19.360Z,9.30
2022-11-16T23:45:22.269Z,9.30
2022-11-16T23:50:25.148Z,9.20
2022-11-16T23:55:28.976Z,9.20
